Time;durP1;ratioP1;P1;durP2;ratioP2;P2;SDS_P1;SDS_P2;PMS_P1;PMS_P2;Temp;Humidity;BMP_temperature;BMP_pressure;BME280_temperature;BME280_humidity;BME280_pressure;Samples;Min_cycle;Max_cycle;Signal;HPM_P1;HPM_P2
2022/07/05 00:02:16;;;;;;;6.87;3.20;;;;;;;13.90;70.11;101531.11;1681429;83;21570;-94
2022/07/05 00:04:43;;;;;;;8.00;2.58;;;;;;;13.87;70.22;101532.37;1681942;85;22649;-95
2022/07/05 00:07:19;;;;;;;5.42;2.90;;;;;;;13.87;70.38;101528.81;1682220;85;21050;-94
2022/07/05 00:09:48;;;;;;;4.25;2.67;;;;;;;13.85;70.56;101523.52;1682499;83;21778;-95
2022/07/05 00:12:18;;;;;;;5.37;2.75;;;;;;;13.86;70.72;101523.08;1682730;84;21130;-94
2022/07/05 00:14:47;;;;;;;6.28;2.52;;;;;;;13.84;70.70;101526.12;1682276;83;21091;-95
2022/07/05 00:17:14;;;;;;;4.67;2.40;;;;;;;13.82;70.83;101535.34;1681813;83;21054;-94
2022/07/05 00:19:42;;;;;;;5.05;2.33;;;;;;;13.79;70.87;101537.49;1652467;85;21094;-95
2022/07/05 00:22:09;;;;;;;6.15;2.42;;;;;;;13.77;70.95;101538.29;1682555;84;21729;-96
2022/07/05 00:24:36;;;;;;;4.33;2.20;;;;;;;13.72;70.98;101538.19;1682287;83;21098;-96
2022/07/05 00:27:07;;;;;;;5.15;2.60;;;;;;;13.62;71.08;101525.58;1682424;83;21082;-95
2022/07/05 00:29:37;;;;;;;5.70;2.62;;;;;;;13.67;71.25;101534.53;1669807;84;21090;-95
2022/07/05 00:32:11;;;;;;;5.50;2.80;;;;;;;13.64;71.32;101542.37;1681515;83;21077;-95
2022/07/05 00:34:39;;;;;;;4.85;2.80;;;;;;;13.53;71.39;101539.48;1629785;85;21094;-94
2022/07/05 00:37:07;;;;;;;5.10;3.15;;;;;;;13.59;71.42;101555.94;1702613;83;21058;-95
2022/07/05 00:39:34;;;;;;;4.75;2.62;;;;;;;13.56;71.49;101550.56;1680331;83;21593;-94
2022/07/05 00:42:01;;;;;;;5.65;2.92;;;;;;;13.53;71.57;101542.13;1680096;85;21043;-93
2022/07/05 00:44:36;;;;;;;4.15;2.17;;;;;;;13.53;71.65;101546.50;1659993;85;21170;-94
2022/07/05 00:47:04;;;;;;;6.90;2.42;;;;;;;13.51;71.68;101558.80;1679812;83;21731;-94
2022/07/05 00:49:31;;;;;;;7.20;2.90;;;;;;;13.47;71.74;101556.50;1679941;83;21149;-95
2022/07/05 00:51:59;;;;;;;5.42;2.52;;;;;;;13.47;71.86;101554.28;1679920;84;21960;-94
2022/07/05 00:54:28;;;;;;;8.93;2.85;;;;;;;13.45;71.98;101553.36;1680175;83;21102;-93
2022/07/05 00:56:55;;;;;;;4.67;2.37;;;;;;;13.44;71.99;101555.52;1679033;84;21082;-94
2022/07/05 00:59:25;;;;;;;7.83;2.87;;;;;;;13.43;72.11;101559.92;1679153;83;21648;-94
2022/07/05 01:01:52;;;;;;;5.70;2.58;;;;;;;13.44;72.17;101560.80;1678895;85;21580;-94
2022/07/05 01:04:19;;;;;;;5.62;2.87;;;;;;;13.42;72.20;101560.80;1679097;83;21102;-96
2022/07/05 01:06:49;;;;;;;6.67;2.83;;;;;;;13.40;72.27;101558.11;1679822;83;21067;-96
2022/07/05 01:09:22;;;;;;;7.50;3.10;;;;;;;13.39;72.29;101558.94;1679514;84;21157;-96
2022/07/05 01:11:55;;;;;;;10.30;2.55;;;;;;;13.38;72.38;101556.25;1679530;83;21197;-96
2022/07/05 01:14:25;;;;;;;4.65;2.22;;;;;;;13.36;72.44;101544.73;1679208;85;21138;-96
2022/07/05 01:16:54;;;;;;;5.30;2.33;;;;;;;13.35;72.46;101549.14;1657442;85;21066;-96
2022/07/05 01:19:24;;;;;;;3.22;2.52;;;;;;;13.35;72.43;101547.83;1659557;83;21094;-94
2022/07/05 01:21:52;;;;;;;4.35;2.22;;;;;;;13.20;72.48;101519.62;1657843;84;21675;-95
2022/07/05 01:24:19;;;;;;;4.17;2.12;;;;;;;13.33;72.51;101544.25;1658067;85;21711;-95
2022/07/05 01:26:56;;;;;;;6.83;2.70;;;;;;;13.33;72.57;101540.72;1678465;84;21078;-94
2022/07/05 01:29:29;;;;;;;5.05;2.40;;;;;;;13.33;72.56;101538.95;1679378;83;22223;-94
2022/07/05 01:31:54;;;;;;;5.75;2.52;;;;;;;13.30;72.48;101536.62;1678317;85;22156;-96
2022/07/05 01:34:25;;;;;;;7.75;3.10;;;;;;;13.18;72.41;101531.91;1678587;85;21105;-94
2022/07/05 01:36:51;;;;;;;6.92;2.20;;;;;;;13.23;72.49;101544.80;1678800;83;21765;-96
2022/07/05 01:39:18;;;;;;;6.72;2.65;;;;;;;13.20;72.49;101541.66;1678565;84;21110;-95
2022/07/05 01:41:53;;;;;;;6.47;2.20;;;;;;;13.18;72.49;101539.84;1654387;84;21553;-95
2022/07/05 01:44:23;;;;;;;4.22;2.50;;;;;;;13.15;72.62;101541.07;1658584;84;21690;-95
2022/07/05 01:46:56;;;;;;;4.50;2.20;;;;;;;13.15;72.71;101537.99;1657400;85;21401;-95
2022/07/05 01:49:23;;;;;;;7.42;3.00;;;;;;;13.15;72.79;101538.42;1679442;83;22158;-95
2022/07/05 01:51:55;;;;;;;4.33;2.30;;;;;;;13.13;72.93;101533.53;1657584;83;21090;-96
2022/07/05 01:54:25;;;;;;;9.93;2.40;;;;;;;13.12;72.97;101524.72;1679179;83;21093;-95
2022/07/05 01:56:55;;;;;;;6.12;2.47;;;;;;;13.11;73.05;101533.48;1678725;83;21421;-95
2022/07/05 01:59:24;;;;;;;4.83;2.10;;;;;;;13.11;73.10;101531.27;1678385;84;21042;-94
2022/07/05 02:01:49;;;;;;;4.42;2.10;;;;;;;13.11;73.10;101528.63;1678854;83;21793;-95
2022/07/05 02:04:18;;;;;;;4.55;2.35;;;;;;;13.09;73.18;101530.34;1678345;83;21090;-95
2022/07/05 02:06:48;;;;;;;5.78;2.35;;;;;;;13.11;73.21;101529.95;1679274;84;21576;-95
2022/07/05 02:09:14;;;;;;;4.33;2.02;;;;;;;13.08;73.16;101536.03;1679322;85;21323;-96
2022/07/05 02:11:41;;;;;;;4.08;2.22;;;;;;;13.08;73.27;101528.53;1678554;85;21117;-95
2022/07/05 02:14:11;;;;;;;4.47;3.15;;;;;;;13.09;73.41;101528.58;1678496;83;21110;-95
2022/07/05 02:16:42;;;;;;;6.78;2.50;;;;;;;13.09;73.50;101528.58;1678389;83;20995;-95
2022/07/05 02:19:09;;;;;;;6.67;2.70;;;;;;;13.10;73.58;101526.83;1678988;84;21083;-94
2022/07/05 02:21:39;;;;;;;7.45;2.70;;;;;;;13.14;73.64;101527.41;1659714;83;21090;-95
2022/07/05 02:24:05;;;;;;;5.75;2.42;;;;;;;13.15;73.64;101527.85;1677402;83;21094;-96
2022/07/05 02:26:35;;;;;;;4.53;1.98;;;;;;;13.15;73.65;101529.17;1678512;83;21767;-96
2022/07/05 02:29:02;;;;;;;7.83;1.90;;;;;;;13.17;73.68;101532.75;1677975;83;21360;-95
2022/07/05 02:31:29;;;;;;;5.95;2.02;;;;;;;13.18;73.69;101532.80;1679471;84;21158;-95
2022/07/05 02:34:01;;;;;;;6.28;2.10;;;;;;;13.21;73.64;101530.66;1679111;83;21094;-95
2022/07/05 02:36:27;;;;;;;2.50;2.00;;;;;;;13.22;73.45;101539.06;1679694;83;21068;-96
2022/07/05 02:38:54;;;;;;;4.25;2.02;;;;;;;13.23;73.42;101543.48;1679748;84;21770;-96
2022/07/05 02:41:25;;;;;;;5.65;1.87;;;;;;;13.25;73.37;101549.73;1680057;83;21236;-96
2022/07/05 02:43:59;;;;;;;3.95;2.00;;;;;;;13.26;73.31;101546.22;1678756;85;21087;-96
2022/07/05 02:46:38;;;;;;;5.00;1.95;;;;;;;13.29;73.28;101558.21;1678663;83;21082;-96
2022/07/05 02:49:11;;;;;;;5.00;2.02;;;;;;;13.31;73.15;101554.33;1675086;85;21518;-95
2022/07/05 02:51:49;;;;;;;3.37;2.00;;;;;;;13.33;73.16;101560.11;1669301;83;21055;-95
2022/07/05 02:54:28;;;;;;;6.72;1.87;;;;;;;13.37;73.16;101555.80;1661555;84;21090;-95
2022/07/05 02:56:57;;;;;;;9.05;2.60;;;;;;;13.43;73.17;101549.78;1671084;85;21075;-94
2022/07/05 02:59:31;;;;;;;6.62;1.85;;;;;;;13.51;73.15;101557.47;1619665;87;21676;-95
2022/07/05 03:02:01;;;;;;;4.85;1.77;;;;;;;13.56;73.08;101557.17;1616930;86;21087;-93
2022/07/05 03:04:29;;;;;;;6.55;2.10;;;;;;;13.63;73.07;101549.86;1645029;86;23379;-95
2022/07/05 03:06:59;;;;;;;5.50;2.27;;;;;;;13.68;72.99;101553.50;1645200;86;21464;-94
2022/07/05 03:09:26;;;;;;;10.65;2.15;;;;;;;13.76;72.98;101551.95;1630161;86;21087;-94
2022/07/05 03:11:53;;;;;;;4.58;1.80;;;;;;;13.84;72.84;101558.76;1645453;85;21055;-94
2022/07/05 03:14:31;;;;;;;9.80;2.00;;;;;;;13.93;72.89;101554.12;1634694;86;21104;-93
2022/07/05 03:17:00;;;;;;;5.35;1.90;;;;;;;14.05;72.89;101557.48;1631423;87;21834;-93
2022/07/05 03:19:32;;;;;;;4.97;2.40;;;;;;;14.14;72.76;101553.30;1647391;86;21083;-94
2022/07/05 03:22:47;;;;;;;6.47;1.93;;;;;;;14.25;72.67;101556.20;1639043;86;22304;-94
2022/07/05 03:25:14;;;;;;;6.70;1.77;;;;;;;14.38;72.59;101552.08;1651352;87;21624;-91
2022/07/05 03:27:42;;;;;;;7.85;2.00;;;;;;;14.57;72.63;101550.31;1653079;85;21106;-92
2022/07/05 03:30:11;;;;;;;5.50;2.22;;;;;;;14.75;72.54;101555.53;1626099;87;21737;-93
2022/07/05 03:32:38;;;;;;;3.37;1.95;;;;;;;15.23;73.73;101545.44;1642671;87;21059;-93
2022/07/05 03:35:07;;;;;;;4.97;1.85;;;;;;;16.86;75.32;101549.31;1645479;86;21192;-92
2022/07/05 03:37:34;;;;;;;6.17;1.85;;;;;;;18.67;74.10;101538.36;1625210;87;21091;-93
2022/07/05 03:40:08;;;;;;;4.97;2.33;;;;;;;20.38;72.06;101540.77;1640588;86;21082;-92
2022/07/05 03:42:35;;;;;;;7.42;3.20;;;;;;;21.23;68.10;101547.52;1627682;86;21758;-93
2022/07/05 03:45:03;;;;;;;5.70;3.20;;;;;;;20.88;65.49;101554.86;1664818;85;21046;-93
2022/07/05 03:47:30;;;;;;;8.58;3.52;;;;;;;20.39;64.46;101549.67;1646347;86;21067;-93
2022/07/05 03:49:57;;;;;;;7.90;4.40;;;;;;;20.07;64.39;101553.77;1648588;85;21066;-95
2022/07/05 03:52:26;;;;;;;10.32;4.60;;;;;;;20.34;64.75;101542.98;1648064;87;21090;-95
2022/07/05 03:54:53;;;;;;;8.10;3.70;;;;;;;20.73;63.96;101542.90;1648228;87;21786;-95
2022/07/05 03:57:20;;;;;;;5.70;2.92;;;;;;;21.58;64.49;101541.07;1641411;85;21134;-95
2022/07/05 03:59:47;;;;;;;9.53;4.33;;;;;;;23.43;64.54;101541.19;1660695;85;21158;-94
2022/07/05 04:02:14;;;;;;;6.55;3.67;;;;;;;25.30;62.59;101552.88;1665507;85;21129;-96
2022/07/05 04:04:43;;;;;;;3.85;2.47;;;;;;;26.83;59.87;101556.48;1673257;85;21043;-95
2022/07/05 04:07:10;;;;;;;8.00;2.72;;;;;;;28.07;57.85;101555.64;1675274;83;21935;-95
2022/07/05 04:09:36;;;;;;;6.05;2.58;;;;;;;29.25;56.05;101559.83;1688086;83;21082;-95
2022/07/05 04:12:34;;;;;;;5.65;2.10;;;;;;;30.24;53.54;101572.87;1676520;84;21170;-93
2022/07/05 04:14:53;;;;;;;3.95;1.92;;;;;;;31.09;51.73;101569.02;1653821;84;21094;-88
2022/07/05 04:17:20;;;;;;;5.50;2.08;;;;;;;31.74;49.66;101572.19;1671905;83;21368;-89
2022/07/05 04:19:46;;;;;;;5.95;1.40;;;;;;;32.40;48.33;101569.23;1677850;83;22707;-89
2022/07/05 04:22:13;;;;;;;3.60;1.92;;;;;;;32.87;46.66;101576.67;1675899;83;20967;-92
2022/07/05 04:27:29;;;;;;;3.00;1.52;;;;;;;33.68;44.28;101566.20;1654032;85;21170;-91
2022/07/05 04:30:12;;;;;;;3.45;1.67;;;;;;;34.42;43.49;101563.08;1676009;83;21118;-90
2022/07/05 04:32:36;;;;;;;3.33;1.75;;;;;;;35.28;42.35;101563.55;1676731;83;21784;-90
2022/07/05 04:35:04;;;;;;;5.00;1.92;;;;;;;36.16;40.99;101553.86;1677339;83;21151;-90
2022/07/05 04:37:33;;;;;;;6.42;1.47;;;;;;;36.71;39.64;101565.52;1674962;83;21110;-95
2022/07/05 04:40:00;;;;;;;4.33;1.67;;;;;;;37.17;38.67;101559.92;1676110;85;21117;-95
2022/07/05 04:42:30;;;;;;;4.92;1.60;;;;;;;37.66;37.67;101560.33;1676507;85;21178;-94
2022/07/05 04:44:56;;;;;;;4.97;1.60;;;;;;;38.25;36.58;101558.02;1680872;83;21751;-94
2022/07/05 04:47:26;;;;;;;5.08;1.50;;;;;;;38.53;35.60;101564.06;1675724;83;21115;-92
2022/07/05 04:49:56;;;;;;;2.12;1.27;;;;;;;39.02;35.02;101566.10;1675013;83;21079;-92
2022/07/05 04:52:25;;;;;;;3.08;1.40;;;;;;;39.69;34.38;101562.82;1668815;83;21942;-95
2022/07/05 04:55:02;;;;;;;4.40;1.47;;;;;;;40.32;33.26;101572.02;1674506;83;21106;-96
2022/07/05 04:57:40;;;;;;;2.77;1.20;;;;;;;40.65;32.07;101569.16;1668857;85;21055;-96
2022/07/05 05:00:12;;;;;;;7.42;1.90;;;;;;;41.01;31.35;101570.47;1667987;84;21158;-90
2022/07/05 05:02:39;;;;;;;4.47;1.30;;;;;;;41.19;30.57;101572.91;1652675;85;21157;-90
2022/07/05 05:05:06;;;;;;;4.10;1.32;;;;;;;41.38;29.91;101568.47;1671527;84;21098;-90
2022/07/05 05:07:32;;;;;;;7.78;1.60;;;;;;;41.65;29.51;101573.83;1685838;84;21181;-93
2022/07/05 05:09:59;;;;;;;3.58;1.40;;;;;;;41.81;28.75;101571.36;1673659;83;21724;-93
2022/07/05 05:12:26;;;;;;;5.28;1.47;;;;;;;41.96;28.62;101558.81;1673753;84;21094;-93
2022/07/05 05:14:55;;;;;;;4.17;1.20;;;;;;;42.46;28.05;101565.13;1676032;84;21501;-93
2022/07/05 05:17:35;;;;;;;3.87;1.35;;;;;;;42.77;27.37;101559.36;1674020;84;21158;-95
2022/07/05 05:20:04;;;;;;;2.55;1.50;;;;;;;42.63;26.57;101561.62;1674693;84;21030;-91
2022/07/05 05:22:31;;;;;;;4.17;1.50;;;;;;;42.60;26.54;101558.28;1675376;84;21721;-92
2022/07/05 05:24:58;;;;;;;4.22;1.05;;;;;;;42.88;26.08;101566.08;1675504;84;21110;-91
2022/07/05 05:27:25;;;;;;;3.35;1.35;;;;;;;42.89;25.67;101565.97;1673785;84;21165;-92
2022/07/05 05:29:52;;;;;;;3.52;1.55;;;;;;;43.13;25.34;101568.66;1674019;84;21098;-92
2022/07/05 05:32:22;;;;;;;4.70;1.77;;;;;;;43.45;25.25;101565.91;1672763;85;21333;-91
2022/07/05 05:34:47;;;;;;;7.30;1.40;;;;;;;43.46;24.72;101569.91;1675706;84;22636;-92
2022/07/05 05:37:14;;;;;;;5.03;1.57;;;;;;;43.54;24.43;101573.27;1669664;85;21069;-91
2022/07/05 05:39:44;;;;;;;4.75;1.72;;;;;;;43.69;24.28;101574.45;1674120;84;21185;-92
2022/07/05 05:42:12;;;;;;;3.37;1.52;;;;;;;43.66;24.13;101576.67;1671606;85;21119;-92
2022/07/05 05:44:38;;;;;;;3.72;1.57;;;;;;;43.45;23.60;101569.54;1657371;84;21106;-91
2022/07/05 05:47:05;;;;;;;4.50;1.40;;;;;;;42.09;23.15;101576.52;1669755;85;22255;-91
2022/07/05 05:49:32;;;;;;;3.37;1.60;;;;;;;39.88;23.55;101575.87;1673786;84;21119;-90
2022/07/05 05:51:59;;;;;;;7.37;1.45;;;;;;;37.53;24.26;101572.72;1657096;84;21471;-90
2022/07/05 05:54:26;;;;;;;3.95;1.25;;;;;;;35.44;25.50;101583.45;1673971;84;21302;-90
2022/07/05 05:56:56;;;;;;;3.10;1.07;;;;;;;33.79;26.49;101584.68;1672743;84;21632;-90
2022/07/05 05:59:21;;;;;;;3.83;1.15;;;;;;;32.39;27.66;101582.45;1677851;83;21820;-90
2022/07/05 06:01:48;;;;;;;3.62;1.12;;;;;;;31.25;28.79;101585.95;1678248;83;21528;-90
2022/07/05 06:04:15;;;;;;;4.03;1.22;;;;;;;30.31;29.76;101573.45;1678005;83;21154;-89
2022/07/05 06:06:42;;;;;;;2.50;1.37;;;;;;;29.70;30.55;101595.98;1677831;83;21559;-89
2022/07/05 06:09:08;;;;;;;6.08;1.20;;;;;;;29.11;31.50;101594.70;1677856;83;21142;-89
2022/07/05 06:11:35;;;;;;;5.62;1.35;;;;;;;28.71;32.22;101600.30;1677781;83;21780;-89
2022/07/05 06:14:02;;;;;;;4.15;1.20;;;;;;;28.24;32.88;101601.06;1677893;83;21118;-88
2022/07/05 06:16:29;;;;;;;2.72;1.50;;;;;;;27.85;33.39;101599.23;1677788;83;21086;-87
2022/07/05 06:18:55;;;;;;;6.85;1.20;;;;;;;27.49;34.06;101603.09;1677702;83;21180;-89
2022/07/05 06:21:22;;;;;;;3.98;1.22;;;;;;;27.32;34.55;101600.05;1677900;83;21138;-89
2022/07/05 06:23:49;;;;;;;2.02;1.02;;;;;;;27.42;34.89;101601.52;1677845;83;22338;-88
2022/07/05 06:26:15;;;;;;;6.45;1.27;;;;;;;27.40;35.02;101603.86;1677291;83;20998;-91
2022/07/05 06:28:42;;;;;;;1.37;1.00;;;;;;;27.32;35.12;101602.28;1677355;83;21616;-89
2022/07/05 06:31:09;;;;;;;3.70;0.93;;;;;;;27.18;35.26;101613.98;1677446;83;21102;-90
2022/07/05 06:33:36;;;;;;;2.20;1.02;;;;;;;26.95;35.64;101615.56;1677140;83;21664;-90
2022/07/05 06:36:03;;;;;;;4.35;1.10;;;;;;;26.80;36.02;101613.28;1677264;83;22357;-90
2022/07/05 06:38:30;;;;;;;3.27;1.15;;;;;;;26.67;36.22;101611.86;1677391;83;21169;-90
2022/07/05 06:40:57;;;;;;;9.10;1.30;;;;;;;26.53;36.49;101617.16;1677363;83;21122;-90
2022/07/05 06:43:25;;;;;;;2.25;1.15;;;;;;;26.32;36.44;101622.69;1677568;83;21213;-89
2022/07/05 06:45:52;;;;;;;3.42;1.15;;;;;;;26.12;36.66;101622.33;1677574;83;21364;-90
2022/07/05 06:48:19;;;;;;;2.05;0.98;;;;;;;25.95;37.15;101616.02;1677661;83;22187;-90
2022/07/05 06:50:46;;;;;;;4.97;1.07;;;;;;;25.77;37.28;101618.66;1677758;83;21051;-90
2022/07/05 06:53:13;;;;;;;3.12;1.20;;;;;;;25.54;37.69;101619.23;1677935;83;21109;-90
2022/07/05 06:55:44;;;;;;;3.87;0.85;;;;;;;25.36;38.00;101618.74;1677516;83;21090;-90
2022/07/05 06:58:12;;;;;;;3.42;1.27;;;;;;;25.16;38.35;101625.88;1678357;83;21593;-90
2022/07/05 07:00:37;;;;;;;1.50;0.88;;;;;;;25.06;38.64;101620.72;1678700;83;22631;-91
2022/07/05 07:03:03;;;;;;;2.33;1.00;;;;;;;24.94;38.68;101623.22;1679402;83;21018;-89
2022/07/05 07:05:31;;;;;;;1.55;0.90;;;;;;;24.76;38.71;101621.81;1679629;83;21124;-88
2022/07/05 07:10:42;;;;;;;2.72;0.95;;;;;;;24.62;39.46;101618.02;1677953;83;21066;-89
2022/07/05 07:13:09;;;;;;;3.75;0.98;;;;;;;24.52;39.83;101624.52;1678054;83;21787;-88
2022/07/05 07:15:37;;;;;;;1.45;0.88;;;;;;;24.44;40.05;101619.25;1678136;83;21077;-89
2022/07/05 07:18:04;;;;;;;4.08;1.10;;;;;;;24.38;40.28;101620.25;1678394;83;21063;-89
2022/07/05 07:20:31;;;;;;;1.92;0.95;;;;;;;24.35;40.55;101620.77;1678279;83;21106;-88
2022/07/05 07:22:58;;;;;;;1.92;1.07;;;;;;;24.31;40.54;101613.67;1678309;83;21317;-90
2022/07/05 07:25:30;;;;;;;2.00;0.98;;;;;;;24.25;40.83;101614.20;1677804;83;21627;-90
2022/07/05 07:27:55;;;;;;;1.37;0.80;;;;;;;24.25;40.91;101613.30;1677956;83;21090;-89
2022/07/05 07:30:25;;;;;;;6.97;2.30;;;;;;;24.23;41.18;101609.75;1678448;83;21063;-90
2022/07/05 07:32:52;;;;;;;3.20;1.00;;;;;;;24.32;41.51;101610.93;1678252;83;21608;-89
2022/07/05 07:35:19;;;;;;;2.60;1.02;;;;;;;24.47;41.73;101615.61;1678414;83;21178;-89
2022/07/05 07:37:46;;;;;;;3.85;1.00;;;;;;;24.67;41.69;101612.57;1678038;83;21740;-89
2022/07/05 07:40:13;;;;;;;2.52;0.93;;;;;;;24.93;41.46;101618.30;1677520;83;21129;-90
2022/07/05 07:42:40;;;;;;;3.10;1.10;;;;;;;25.10;40.97;101608.98;1677726;83;21125;-89
2022/07/05 07:45:09;;;;;;;0.98;0.70;;;;;;;25.28;41.18;101607.23;1655575;84;49881;-89
2022/07/05 07:47:38;;;;;;;2.98;1.15;;;;;;;25.37;40.55;101604.33;1677502;83;21098;-90
2022/07/05 07:50:06;;;;;;;1.67;0.70;;;;;;;25.27;40.31;101604.13;1677738;83;21793;-91
2022/07/05 07:52:40;;;;;;;1.35;0.90;;;;;;;25.29;40.44;101601.41;1677683;83;21125;-90
2022/07/05 07:55:06;;;;;;;2.25;0.75;;;;;;;25.45;40.71;101597.88;1676690;83;21161;-90
2022/07/05 07:57:33;;;;;;;3.45;1.15;;;;;;;25.67;40.75;101603.17;1677592;83;21210;-89
2022/07/05 08:00:05;;;;;;;1.65;0.82;;;;;;;25.97;40.91;101596.16;1671450;84;21138;-90
2022/07/05 08:02:32;;;;;;;3.40;0.90;;;;;;;26.37;40.81;101600.95;1671529;84;21770;-90
2022/07/05 08:04:59;;;;;;;3.67;1.00;;;;;;;26.72;40.31;101597.77;1671669;84;21146;-89
2022/07/05 08:07:25;;;;;;;4.65;0.80;;;;;;;26.76;39.70;101599.45;1671571;84;21138;-89
2022/07/05 08:10:22;;;;;;;2.72;1.10;;;;;;;26.79;39.92;101593.97;1671615;84;21154;-89
2022/07/05 08:12:50;;;;;;;1.50;1.00;;;;;;;26.96;39.73;101596.17;1671823;84;21114;-89
2022/07/05 08:15:17;;;;;;;3.12;1.05;;;;;;;27.13;39.25;101591.12;1672315;84;21800;-88
2022/07/05 08:21:30;;;;;;;1.37;1.00;;;;;;;27.30;39.15;101587.06;1671934;84;21051;-89
2022/07/05 08:22:57;;;;;;;2.42;1.20;;;;;;;27.62;38.57;101590.55;1672035;84;21083;-89
2022/07/05 08:25:25;;;;;;;5.55;1.15;;;;;;;27.75;38.31;101589.67;1671766;84;21085;-89
2022/07/05 08:27:54;;;;;;;1.75;0.82;;;;;;;27.82;37.81;101584.48;1671801;84;21703;-89
2022/07/05 08:30:20;;;;;;;3.58;1.00;;;;;;;27.79;37.84;101585.45;1671825;84;21110;-88
2022/07/05 08:32:47;;;;;;;3.25;0.72;;;;;;;27.69;37.82;101597.52;1671802;84;21142;-88
2022/07/05 08:35:14;;;;;;;1.30;0.70;;;;;;;27.54;37.38;101590.32;1671537;84;21107;-88
2022/07/05 08:37:40;;;;;;;1.55;0.80;;;;;;;27.49;37.46;101588.22;1671450;84;21578;-88
2022/07/05 08:40:08;;;;;;;2.12;1.15;;;;;;;27.59;37.51;101588.84;1671238;85;22684;-89
2022/07/05 08:42:36;;;;;;;2.75;1.17;;;;;;;27.78;37.29;101589.55;1671374;84;21541;-88
2022/07/05 08:45:03;;;;;;;2.60;1.00;;;;;;;27.91;37.14;101592.28;1672914;84;21110;-89
2022/07/05 08:47:30;;;;;;;2.37;1.02;;;;;;;27.90;37.02;101594.11;1673028;84;21039;-88
2022/07/05 08:49:56;;;;;;;4.20;0.88;;;;;;;27.91;36.86;101590.94;1672582;84;21032;-88
2022/07/05 08:52:23;;;;;;;1.90;1.00;;;;;;;28.06;36.79;101594.48;1631479;85;21742;-89
2022/07/05 08:54:51;;;;;;;3.47;0.85;;;;;;;28.07;36.64;101593.53;1672402;84;21568;-89
2022/07/05 08:57:18;;;;;;;1.47;0.82;;;;;;;28.07;36.37;101578.65;1671373;84;21118;-87
2022/07/05 08:59:44;;;;;;;2.22;0.90;;;;;;;28.17;36.63;101587.32;1671102;84;21534;-90
2022/07/05 09:02:13;;;;;;;1.55;0.88;;;;;;;28.22;36.67;101590.76;1671581;84;21172;-89
2022/07/05 09:04:44;;;;;;;1.60;0.70;;;;;;;28.34;36.06;101587.20;1653793;85;23874;-89
2022/07/05 09:07:12;;;;;;;2.58;0.82;;;;;;;28.22;35.75;101585.34;1671725;84;21147;-88
2022/07/05 09:09:43;;;;;;;4.92;1.47;;;;;;;28.12;35.79;101583.92;1671786;84;21007;-89
2022/07/05 09:12:08;;;;;;;2.70;1.10;;;;;;;28.01;36.16;101586.98;1670843;85;21078;-89
2022/07/05 09:14:35;;;;;;;2.45;1.12;;;;;;;27.94;35.98;101585.42;1672039;84;21585;-88
2022/07/05 09:17:02;;;;;;;2.35;1.00;;;;;;;27.85;36.01;101584.35;1672045;84;21767;-89
2022/07/05 09:19:30;;;;;;;6.55;1.30;;;;;;;27.81;36.12;101586.27;1672436;84;21095;-89
2022/07/05 09:22:04;;;;;;;1.82;1.27;;;;;;;27.73;36.21;101566.72;1672269;84;21106;-89
2022/07/05 09:24:31;;;;;;;1.75;1.15;;;;;;;27.84;36.12;101581.25;1672051;84;21803;-89
2022/07/05 09:27:04;;;;;;;2.55;0.80;;;;;;;27.66;35.99;101586.31;1672272;84;21110;-90
2022/07/05 09:29:31;;;;;;;;;;;;;;;27.64;36.07;101577.85;1674295;85;21811;-89
2022/07/05 09:31:58;;;;;;;1.52;0.70;;;;;;;27.69;35.78;101571.83;1671627;84;20900;-89
2022/07/05 09:34:27;;;;;;;3.37;1.35;;;;;;;27.67;36.12;101567.81;1671924;84;21068;-90
2022/07/05 09:37:02;;;;;;;2.50;1.20;;;;;;;27.73;36.40;101562.67;1672022;84;21106;-89
2022/07/05 09:39:36;;;;;;;2.47;1.00;;;;;;;27.73;35.94;101573.02;1672219;84;21129;-89
2022/07/05 09:42:24;;;;;;;1.98;0.98;;;;;;;27.66;36.27;101567.86;1671627;84;21762;-89
2022/07/05 09:44:56;;;;;;;2.33;1.00;;;;;;;27.64;36.33;101569.73;1673147;84;21051;-90
2022/07/05 09:47:26;;;;;;;3.35;1.30;;;;;;;27.74;36.38;101564.42;1653159;85;21118;-88
2022/07/05 09:49:55;;;;;;;1.98;1.12;;;;;;;27.90;36.51;101554.88;1654222;84;21186;-90
2022/07/05 09:52:40;;;;;;;4.12;1.20;;;;;;;28.06;36.46;101557.95;1673235;84;21044;-89
2022/07/05 09:55:13;;;;;;;1.67;0.82;;;;;;;28.18;35.96;101553.91;1673373;84;21928;-89
2022/07/05 09:57:41;;;;;;;1.17;1.00;;;;;;;28.29;36.33;101550.83;1672894;84;21659;-90
2022/07/05 10:00:15;;;;;;;1.75;1.05;;;;;;;28.42;35.70;101557.55;1682430;83;21343;-89
2022/07/05 10:02:53;;;;;;;3.67;0.80;;;;;;;28.46;35.48;101557.85;1687529;83;21165;-89
2022/07/05 10:05:22;;;;;;;2.50;1.15;;;;;;;28.52;35.59;101557.22;1664292;84;21695;-89
2022/07/05 10:07:54;;;;;;;2.60;1.20;;;;;;;28.46;35.14;101561.91;1686022;83;21783;-88
2022/07/05 10:10:22;;;;;;;3.20;1.75;;;;;;;28.47;35.12;101554.66;1687497;83;21000;-90
2022/07/05 10:12:55;;;;;;;1.57;0.90;;;;;;;28.50;34.90;101552.73;1688073;83;21501;-89
2022/07/05 10:15:24;;;;;;;3.15;1.10;;;;;;;28.46;34.82;101555.63;1687910;83;21443;-89
2022/07/05 10:18:01;;;;;;;3.62;1.20;;;;;;;28.47;34.98;101557.38;1685500;83;21098;-89
2022/07/05 10:20:45;;;;;;;3.52;1.30;;;;;;;28.56;34.87;101546.71;1685694;83;21766;-88
2022/07/05 10:23:16;;;;;;;3.27;1.10;;;;;;;28.53;34.28;101549.52;1685632;83;21118;-89
2022/07/05 10:25:48;;;;;;;2.67;0.82;;;;;;;28.23;34.09;101542.91;1685541;83;21513;-89
2022/07/05 10:28:16;;;;;;;2.83;1.00;;;;;;;27.94;34.28;101545.31;1686878;83;21055;-89
2022/07/05 10:30:49;;;;;;;1.07;0.98;;;;;;;27.73;34.43;101539.20;1686556;83;21142;-88
2022/07/05 10:33:14;;;;;;;4.40;1.22;;;;;;;27.65;34.64;101541.77;1684922;83;21620;-89
2022/07/05 10:35:47;;;;;;;1.75;1.00;;;;;;;27.67;34.68;101535.84;1685279;83;21121;-89
2022/07/05 10:38:16;;;;;;;2.35;1.02;;;;;;;27.67;34.87;101539.42;1686735;83;21094;-89
2022/07/05 10:40:44;;;;;;;5.10;1.20;;;;;;;27.75;34.74;101536.92;1685161;83;21081;-92
2022/07/05 10:43:12;;;;;;;1.98;1.00;;;;;;;27.73;34.73;101535.14;1663751;83;21106;-89
2022/07/05 10:45:41;;;;;;;4.35;0.93;;;;;;;27.58;34.49;101532.97;1659070;84;22683;-89
2022/07/05 10:48:29;;;;;;;2.17;1.15;;;;;;;27.48;34.79;101531.04;1677570;83;21082;-89
2022/07/05 10:51:14;;;;;;;3.02;1.07;;;;;;;27.40;34.98;101526.34;1685239;83;21130;-89
2022/07/05 10:53:47;;;;;;;3.95;1.30;;;;;;;27.43;35.13;101525.37;1685369;83;21185;-88
2022/07/05 10:56:14;;;;;;;4.50;4.10;;;;;;;27.58;35.27;101525.33;1685269;83;21172;-89
2022/07/05 10:58:45;;;;;;;5.05;3.72;;;;;;;27.72;35.33;101522.57;1684995;83;21764;-89
2022/07/05 11:01:25;;;;;;;4.33;3.55;;;;;;;27.99;35.33;101527.98;1653585;84;21145;-90
2022/07/05 11:04:02;;;;;;;7.00;4.53;;;;;;;28.29;35.21;101523.28;1674761;84;21113;-89
2022/07/05 11:06:34;;;;;;;8.13;5.08;;;;;;;28.54;34.96;101525.58;1648789;84;21830;-89
2022/07/05 11:09:08;;;;;;;7.58;4.20;;;;;;;28.67;34.50;101526.39;1673089;84;21110;-88
2022/07/05 11:11:42;;;;;;;3.62;2.37;;;;;;;28.59;33.88;101523.58;1672163;84;21804;-89
2022/07/05 11:14:26;;;;;;;6.70;3.75;;;;;;;28.50;33.85;101522.94;1672348;84;21075;-89
2022/07/05 11:17:16;;;;;;;5.10;2.35;;;;;;;28.46;33.84;101523.12;1672740;84;21074;-89
2022/07/05 11:20:05;;;;;;;4.75;2.33;;;;;;;28.46;33.92;101518.58;1653427;85;21154;-90
2022/07/05 11:22:34;;;;;;;5.87;2.65;;;;;;;28.46;33.77;101522.65;1653628;85;21115;-89
2022/07/05 11:25:05;;;;;;;8.90;2.80;;;;;;;28.25;33.57;101516.69;1654309;84;22544;-89
2022/07/05 11:27:31;;;;;;;3.62;1.67;;;;;;;28.01;33.77;101517.11;1671045;84;21390;-89
2022/07/05 11:29:58;;;;;;;5.85;2.02;;;;;;;27.76;34.01;101512.98;1671258;84;22233;-89
2022/07/05 11:32:34;;;;;;;3.98;1.57;;;;;;;27.57;34.28;101512.25;1671471;84;21091;-89
2022/07/05 11:35:18;;;;;;;5.87;2.70;;;;;;;27.38;34.43;101511.98;1672791;84;21714;-89
2022/07/05 11:37:58;;;;;;;;;;;;;;;27.21;34.59;101511.63;1674902;84;21736;-89
2022/07/05 11:40:32;;;;;;;3.55;1.60;;;;;;;27.08;34.56;101505.73;1653273;84;20258;-89
2022/07/05 11:42:58;;;;;;;;;;;;;;;27.03;35.08;101509.03;1673701;84;21095;-89
2022/07/05 11:45:25;;;;;;;5.75;1.90;;;;;;;27.13;35.25;101510.53;1671069;84;20530;-89
2022/07/05 11:47:56;;;;;;;6.28;1.35;;;;;;;27.25;35.12;101496.64;1670838;84;21122;-89